Terminal Aerodrome Forecast
Issued by NWS Lake Charles, LA

Home | Current Version | Previous Version | Text Only | Print | Product List | Glossary On
Versions: 1 2 3 4 5 6 7 8 9 10 11 12 13 14
788
FTUS44 KLCH 111120
TAFLFT
TAF
KLFT 111120Z 1112/1212 22005KT P6SM SKC
     FM111500 24012G18KT P6SM SKC
     FM120000 22007KT P6SM SKC
     FM120900 22004KT 4SM BR BKN007=

USA.gov is the U.S. government's official web portal to all federal, state and local government web resources and services.